Neptune Avra — 9HKH6 — position and weather

sailwx.info

Track history (hours):
 
Tides and Currents Weather Stations Pressure Air Temp Water Temp Dewpoint Dewpoint Depression Visibility Wind Speed Wind Dir Waves Ship Positions

Neptune Avra

Last reported at 2015-Jan-31 04:33 UTC. Time now 2015-Jan-31 05:32 UTC.
Position N 40°07' E 001°42'.

Length 155 m; draft 6.2 m.

Type: Cargo ship. MMSI: 248598000.

Date/timePositionNaut miles runAvg speedWind from/ knotsBaromVisibWave heightAir tempDewpointWater temp
2015-Jan-31 04:33N 40°07' E 001°42'1615.6
2015-Jan-31 03:33N 40°20' E 001°54'1515.0
2015-Jan-31 02:33N 40°32' E 002°06'1515.2
2015-Jan-31 01:34N 40°44' E 002°18'1515.1
2015-Jan-31 00:33N 40°56' E 002°29'3215.2
2015-Jan-30 22:28N 41°23' E 002°52'2015.7
2015-Jan-30 21:09N 41°40' E 003°08'1014.3
2015-Jan-30 20:28N 41°47' E 003°16'3215.5
2015-Jan-30 18:26N 42°17' E 003°32'1515.2
2015-Jan-30 17:26N 42°30' E 003°41'1514.7
2015-Jan-30 16:26N 42°43' E 003°51'1314.0
2015-Jan-30 15:31N 42°53' E 004°02'1414.4
2015-Jan-30 14:33N 43°03' E 004°15'1914.6
2015-Jan-30 13:15N 43°13' E 004°38'1014.4
2015-Jan-30 12:34N 43°17' E 004°50'7 6.8
2015-Jan-30 11:33N 43°24' E 004°51'0 0.1
2015-Jan-30 10:34N 43°24' E 004°51'0 0.0
2015-Jan-30 09:33N 43°24' E 004°51'0 0.0
2015-Jan-30 08:33N 43°24' E 004°51'0 0.0
2015-Jan-30 07:32N 43°24' E 004°51'0 0.0
2015-Jan-30 06:32N 43°24' E 004°51'0 0.0
2015-Jan-30 05:33N 43°24' E 004°51'5 5.4
2015-Jan-30 04:33N 43°22' E 004°58'1111.4
2015-Jan-30 03:33N 43°11' E 005°02'1313.0
2015-Jan-30 02:32N 43°08' E 004°45'4514.7
2015-Jan-29 23:30N 43°04' E 003°44'3014.6
2015-Jan-29 21:27N 42°35' E 003°31'1814.9
2015-Jan-29 20:15N 42°18' E 003°25'3015.3
2015-Jan-29 18:16N 41°49' E 003°14'1417.5
2015-Jan-29 17:28N 41°41' E 002°59'1617.6
2015-Jan-29 16:33N 41°32' E 002°41'2018.1
2015-Jan-29 15:27N 41°21' E 002°19'8 8.1
2015-Jan-29 14:31N 41°20' E 002°09'0 0.2
2015-Jan-29 13:06N 41°20' E 002°09'2 0.2
2015-Jan-29 04:25N 41°18' E 002°10'1314.7
2015-Jan-29 03:33N 41°06' E 002°05'1010.3
2015-Jan-29 02:33N 40°57' E 001°58'1514.8
2015-Jan-29 01:33N 40°44' E 001°50'1716.5
2015-Jan-29 00:33N 40°29' E 001°40'1716.6
2015-Jan-28 23:33N 40°15' E 001°30'1616.4
2015-Jan-28 22:33N 40°00' E 001°20'1616.5
2015-Jan-28 21:33N 39°45' E 001°11'11816.9
2015-Jan-28 14:33N 38°02' W 000°04'2117.1
2015-Jan-28 13:20N 37°45' W 000°19'1316.9
2015-Jan-28 12:33N 37°34' W 000°29'1616.7
2015-Jan-28 11:34N 37°23' W 000°44'1717.1
2015-Jan-28 10:33N 37°11' W 000°60'21416.2
2015-Jan-27 21:23N 35°60' W 005°10'1518.0
2015-Jan-27 20:34N 35°56' W 005°28'2 0.1
2015-Jan-27 04:23N 35°56' W 005°30'1011.8
2015-Jan-27 03:33N 36°01' W 005°19'210 4.1
2015-Jan-25 00:30N 37°07' W 001°11'1414.3
2015-Jan-24 23:33N 37°16' W 000°59'1515.0
2015-Jan-24 22:33N 37°27' W 000°45'1514.8
2015-Jan-24 21:34N 37°37' W 000°31'1414.5
2015-Jan-24 20:34N 37°49' W 000°21'1514.3
2015-Jan-24 19:33N 38°01' W 000°10'9214.8
2015-Jan-24 13:20N 39°17' E 000°54'1414.8
2015-Jan-24 12:24N 39°28' E 001°05'1514.7
2015-Jan-24 11:22N 39°41' E 001°17'1214.4
2015-Jan-24 10:33N 39°50' E 001°26'1414.2
2015-Jan-24 09:33N 40°02' E 001°36'1414.3
2015-Jan-24 08:33N 40°14' E 001°47'6161.0
2015-Jan-24 07:33N 41°02' E 002°36'3332.6
2015-Jan-24 06:33N 40°36' E 002°10'1414.5
2015-Jan-24 05:33N 40°47' E 002°21'1515.0
2015-Jan-24 04:33N 40°59' E 002°33'6014.7
2015-Jan-24 00:28N 41°48' E 003°20'2014.7
2015-Jan-23 23:08N 42°08' E 003°22'1015.4
2015-Jan-23 22:28N 42°18' E 003°22'2814.0
2015-Jan-23 20:28N 42°46' E 003°22'1010.2
2015-Jan-23 19:28N 42°53' E 003°32'1412.5
2015-Jan-23 18:20N 42°59' E 003°49'1012.3
2015-Jan-23 17:33N 43°06' E 003°59'1713.9
2015-Jan-23 16:21N 43°10' E 004°21'1214.0
2015-Jan-23 15:29N 43°12' E 004°37'1314.3
2015-Jan-23 14:33N 43°15' E 004°55'9 8.7
2015-Jan-23 13:33N 43°24' E 004°55'3 3.2
2015-Jan-23 12:32N 43°24' E 004°51'0 0.0
2015-Jan-23 11:32N 43°24' E 004°51'0 0.0
2015-Jan-23 10:32N 43°24' E 004°51'0 0.0
2015-Jan-23 09:32N 43°24' E 004°51'0 0.0
2015-Jan-23 08:32N 43°24' E 004°51'0 0.0
2015-Jan-23 07:32N 43°24' E 004°51'0 0.0
2015-Jan-23 06:32N 43°24' E 004°51'0 0.0
2015-Jan-23 05:32N 43°24' E 004°51'0 0.0
2015-Jan-23 04:34N 43°24' E 004°51'4 4.2
2015-Jan-23 03:33N 43°23' E 004°57'1010.6
2015-Jan-23 02:33N 43°14' E 005°02'1313.4
2015-Jan-23 01:33N 43°02' E 004°52'1515.4
2015-Jan-23 00:34N 42°51' E 004°37'5914.4
2015-Jan-22 20:28N 42°08' E 003°44'1814.1
2015-Jan-22 19:14N 41°55' E 003°28'1015.2
2015-Jan-22 18:33N 41°48' E 003°18'2316.7
2015-Jan-22 17:10N 41°35' E 002°52'1015.5
2015-Jan-22 16:31N 41°30' E 002°41'1714.2
2015-Jan-22 15:21N 41°21' E 002°22'19 1.0
2015-Jan-21 19:33N 41°07' E 002°05'1413.9
2015-Jan-21 18:33N 40°55' E 001°57'1414.3
2015-Jan-21 17:33N 40°42' E 001°48'1514.6
2015-Jan-21 16:33N 40°29' E 001°39'1414.3
2015-Jan-21 15:33N 40°16' E 001°30'1414.0
2015-Jan-21 14:33N 40°04' E 001°22'1414.4
2015-Jan-21 13:33N 39°51' E 001°14'  
Track history (hours):
 
Tides and Currents Weather Stations Pressure Air Temp Water Temp Dewpoint Dewpoint Depression Visibility Wind Speed Wind Dir Waves Ship Positions

Neptune Avra

Last reported at 2015-Jan-31 04:33 UTC. Time now 2015-Jan-31 05:32 UTC.
Position N 40°07' E 001°42'.

Length 155 m; draft 6.2 m.

Type: Cargo ship. MMSI: 248598000.

Date/timePositionNaut miles runAvg speedWind from/ knotsBaromVisibWave heightAir tempDewpointWater temp
2015-Jan-31 04:33N 40°07' E 001°42'1615.6
2015-Jan-31 03:33N 40°20' E 001°54'1515.0
2015-Jan-31 02:33N 40°32' E 002°06'1515.2
2015-Jan-31 01:34N 40°44' E 002°18'1515.1
2015-Jan-31 00:33N 40°56' E 002°29'3215.2
2015-Jan-30 22:28N 41°23' E 002°52'2015.7
2015-Jan-30 21:09N 41°40' E 003°08'1014.3
2015-Jan-30 20:28N 41°47' E 003°16'3215.5
2015-Jan-30 18:26N 42°17' E 003°32'1515.2
2015-Jan-30 17:26N 42°30' E 003°41'1514.7
2015-Jan-30 16:26N 42°43' E 003°51'1314.0
2015-Jan-30 15:31N 42°53' E 004°02'1414.4
2015-Jan-30 14:33N 43°03' E 004°15'1914.6
2015-Jan-30 13:15N 43°13' E 004°38'1014.4
2015-Jan-30 12:34N 43°17' E 004°50'7 6.8
2015-Jan-30 11:33N 43°24' E 004°51'0 0.1
2015-Jan-30 10:34N 43°24' E 004°51'0 0.0
2015-Jan-30 09:33N 43°24' E 004°51'0 0.0
2015-Jan-30 08:33N 43°24' E 004°51'0 0.0
2015-Jan-30 07:32N 43°24' E 004°51'0 0.0
2015-Jan-30 06:32N 43°24' E 004°51'0 0.0
2015-Jan-30 05:33N 43°24' E 004°51'5 5.4
2015-Jan-30 04:33N 43°22' E 004°58'1111.4
2015-Jan-30 03:33N 43°11' E 005°02'1313.0
2015-Jan-30 02:32N 43°08' E 004°45'4514.7
2015-Jan-29 23:30N 43°04' E 003°44'3014.6
2015-Jan-29 21:27N 42°35' E 003°31'1814.9
2015-Jan-29 20:15N 42°18' E 003°25'3015.3
2015-Jan-29 18:16N 41°49' E 003°14'1417.5
2015-Jan-29 17:28N 41°41' E 002°59'1617.6
2015-Jan-29 16:33N 41°32' E 002°41'2018.1
2015-Jan-29 15:27N 41°21' E 002°19'8 8.1
2015-Jan-29 14:31N 41°20' E 002°09'0 0.2
2015-Jan-29 13:06N 41°20' E 002°09'2 0.2
2015-Jan-29 04:25N 41°18' E 002°10'1314.7
2015-Jan-29 03:33N 41°06' E 002°05'1010.3
2015-Jan-29 02:33N 40°57' E 001°58'1514.8
2015-Jan-29 01:33N 40°44' E 001°50'1716.5
2015-Jan-29 00:33N 40°29' E 001°40'1716.6
2015-Jan-28 23:33N 40°15' E 001°30'1616.4
2015-Jan-28 22:33N 40°00' E 001°20'1616.5
2015-Jan-28 21:33N 39°45' E 001°11'11816.9
2015-Jan-28 14:33N 38°02' W 000°04'2117.1
2015-Jan-28 13:20N 37°45' W 000°19'1316.9
2015-Jan-28 12:33N 37°34' W 000°29'1616.7
2015-Jan-28 11:34N 37°23' W 000°44'1717.1
2015-Jan-28 10:33N 37°11' W 000°60'21416.2
2015-Jan-27 21:23N 35°60' W 005°10'1518.0
2015-Jan-27 20:34N 35°56' W 005°28'2 0.1
2015-Jan-27 04:23N 35°56' W 005°30'1011.8
2015-Jan-27 03:33N 36°01' W 005°19'210 4.1
2015-Jan-25 00:30N 37°07' W 001°11'1414.3
2015-Jan-24 23:33N 37°16' W 000°59'1515.0
2015-Jan-24 22:33N 37°27' W 000°45'1514.8
2015-Jan-24 21:34N 37°37' W 000°31'1414.5
2015-Jan-24 20:34N 37°49' W 000°21'1514.3
2015-Jan-24 19:33N 38°01' W 000°10'9214.8
2015-Jan-24 13:20N 39°17' E 000°54'1414.8
2015-Jan-24 12:24N 39°28' E 001°05'1514.7
2015-Jan-24 11:22N 39°41' E 001°17'1214.4
2015-Jan-24 10:33N 39°50' E 001°26'1414.2
2015-Jan-24 09:33N 40°02' E 001°36'1414.3
2015-Jan-24 08:33N 40°14' E 001°47'6161.0
2015-Jan-24 07:33N 41°02' E 002°36'3332.6
2015-Jan-24 06:33N 40°36' E 002°10'1414.5
2015-Jan-24 05:33N 40°47' E 002°21'1515.0
2015-Jan-24 04:33N 40°59' E 002°33'6014.7
2015-Jan-24 00:28N 41°48' E 003°20'2014.7
2015-Jan-23 23:08N 42°08' E 003°22'1015.4
2015-Jan-23 22:28N 42°18' E 003°22'2814.0
2015-Jan-23 20:28N 42°46' E 003°22'1010.2
2015-Jan-23 19:28N 42°53' E 003°32'1412.5
2015-Jan-23 18:20N 42°59' E 003°49'1012.3
2015-Jan-23 17:33N 43°06' E 003°59'1713.9
2015-Jan-23 16:21N 43°10' E 004°21'1214.0
2015-Jan-23 15:29N 43°12' E 004°37'1314.3
2015-Jan-23 14:33N 43°15' E 004°55'9 8.7
2015-Jan-23 13:33N 43°24' E 004°55'3 3.2
2015-Jan-23 12:32N 43°24' E 004°51'0 0.0
2015-Jan-23 11:32N 43°24' E 004°51'0 0.0
2015-Jan-23 10:32N 43°24' E 004°51'0 0.0
2015-Jan-23 09:32N 43°24' E 004°51'0 0.0
2015-Jan-23 08:32N 43°24' E 004°51'0 0.0
2015-Jan-23 07:32N 43°24' E 004°51'0 0.0
2015-Jan-23 06:32N 43°24' E 004°51'0 0.0
2015-Jan-23 05:32N 43°24' E 004°51'0 0.0
2015-Jan-23 04:34N 43°24' E 004°51'4 4.2
2015-Jan-23 03:33N 43°23' E 004°57'1010.6
2015-Jan-23 02:33N 43°14' E 005°02'1313.4
2015-Jan-23 01:33N 43°02' E 004°52'1515.4
2015-Jan-23 00:34N 42°51' E 004°37'5914.4
2015-Jan-22 20:28N 42°08' E 003°44'1814.1
2015-Jan-22 19:14N 41°55' E 003°28'1015.2
2015-Jan-22 18:33N 41°48' E 003°18'2316.7
2015-Jan-22 17:10N 41°35' E 002°52'1015.5
2015-Jan-22 16:31N 41°30' E 002°41'1714.2
2015-Jan-22 15:21N 41°21' E 002°22'19 1.0
2015-Jan-21 19:33N 41°07' E 002°05'1413.9
2015-Jan-21 18:33N 40°55' E 001°57'1414.3
2015-Jan-21 17:33N 40°42' E 001°48'1514.6
2015-Jan-21 16:33N 40°29' E 001°39'1414.3
2015-Jan-21 15:33N 40°16' E 001°30'1414.0
2015-Jan-21 14:33N 40°04' E 001°22'1414.4
2015-Jan-21 13:33N 39°51' E 001°14'  

Dump ship's entire track history